createdAt,value
2023-03-02T00:01:47.360Z,20.80
2023-03-02T00:04:19.295Z,20.20
2023-03-02T00:06:48.609Z,25.80
2023-03-02T00:09:18.145Z,19.37
2023-03-02T00:11:46.836Z,18.77
2023-03-02T00:14:16.775Z,17.87
2023-03-02T00:16:45.017Z,18.33
2023-03-02T00:19:13.445Z,21.87
2023-03-02T00:21:41.878Z,19.17
2023-03-02T00:24:10.469Z,19.47
2023-03-02T00:26:39.262Z,16.57
2023-03-02T00:29:07.701Z,15.73
2023-03-02T00:31:39.157Z,14.17
2023-03-02T00:34:07.718Z,15.43
2023-03-02T00:36:36.326Z,17.43
2023-03-02T00:39:05.567Z,17.83
2023-03-02T00:41:34.430Z,16.17
2023-03-02T00:44:02.896Z,16.63
2023-03-02T00:46:31.833Z,17.60
2023-03-02T00:49:02.622Z,15.10
2023-03-02T00:51:31.306Z,17.20
2023-03-02T00:54:02.696Z,16.40
2023-03-02T00:56:31.553Z,18.97
2023-03-02T00:59:00.339Z,18.73
2023-03-02T01:01:29.258Z,18.60
2023-03-02T01:03:57.661Z,16.87
2023-03-02T01:06:27.858Z,16.60
2023-03-02T01:08:56.941Z,18.77
2023-03-02T01:11:25.234Z,16.60
2023-03-02T01:13:53.538Z,19.50
2023-03-02T01:16:22.313Z,16.00
2023-03-02T01:18:50.944Z,16.07
2023-03-02T01:21:19.430Z,14.87
2023-03-02T01:23:49.698Z,15.73
2023-03-02T01:26:18.324Z,15.07
2023-03-02T01:28:46.865Z,16.03
2023-03-02T01:31:15.788Z,17.87
2023-03-02T01:33:44.332Z,14.77
2023-03-02T01:36:13.029Z,18.77
2023-03-02T01:38:41.833Z,14.73
2023-03-02T01:45:44.053Z,13.07
2023-03-02T01:48:15.831Z,18.87
2023-03-02T01:50:45.307Z,20.13
2023-03-02T01:53:15.261Z,14.20
2023-03-02T01:55:44.522Z,19.97
2023-03-02T01:58:14.060Z,13.77
2023-03-02T02:00:43.225Z,14.90
2023-03-02T02:03:15.848Z,10.77
2023-03-02T02:05:45.517Z,16.97
2023-03-02T02:08:14.036Z,14.70
2023-03-02T02:10:43.357Z,17.40
2023-03-02T02:13:13.018Z,24.57
2023-03-02T02:15:41.967Z,15.47
2023-03-02T02:18:10.771Z,17.93
2023-03-02T02:20:44.901Z,13.90
2023-03-02T02:23:26.965Z,12.33
2023-03-02T02:26:08.599Z,13.37
2023-03-02T02:28:40.905Z,13.93
2023-03-02T02:31:15.184Z,15.93
2023-03-02T02:33:45.873Z,16.83
2023-03-02T02:36:18.448Z,15.77
2023-03-02T02:38:49.160Z,14.30
2023-03-02T02:41:23.940Z,15.93
2023-03-02T02:43:52.939Z,15.13
2023-03-02T02:46:21.746Z,14.03
2023-03-02T02:48:51.208Z,24.50
2023-03-02T02:51:26.701Z,15.33
2023-03-02T02:54:00.654Z,19.20
2023-03-02T02:56:35.904Z,15.37
2023-03-02T02:59:08.031Z,15.40
2023-03-02T03:01:36.997Z,14.83
2023-03-02T03:04:07.260Z,18.33
2023-03-02T03:06:42.100Z,16.07
2023-03-02T03:09:13.426Z,14.10
2023-03-02T03:11:54.042Z,14.53
2023-03-02T03:14:26.589Z,14.47
2023-03-02T03:16:56.464Z,13.33
2023-03-02T03:19:27.749Z,13.53
2023-03-02T03:21:59.547Z,13.37
2023-03-02T03:24:31.990Z,18.10
2023-03-02T03:27:05.475Z,20.83
2023-03-02T03:29:37.624Z,14.97
2023-03-02T03:32:08.451Z,12.70
2023-03-02T03:34:40.934Z,13.67
2023-03-02T03:37:18.651Z,14.33
2023-03-02T03:39:47.860Z,16.43
2023-03-02T03:42:19.251Z,13.77
2023-03-02T03:44:48.600Z,14.07
2023-03-02T03:47:17.294Z,14.10
2023-03-02T03:49:45.962Z,13.93
2023-03-02T03:52:14.920Z,13.10
2023-03-02T03:54:43.933Z,15.93
2023-03-02T03:57:12.306Z,12.97
2023-03-02T03:59:42.769Z,15.50
2023-03-02T04:02:12.313Z,14.93
2023-03-02T04:04:46.475Z,15.43
2023-03-02T04:07:18.040Z,16.57
2023-03-02T04:09:47.692Z,13.43
2023-03-02T04:12:17.318Z,17.17
2023-03-02T04:14:54.243Z,18.07
2023-03-02T04:17:22.903Z,19.20
2023-03-02T04:19:51.607Z,17.03
2023-03-02T04:22:20.191Z,12.50
2023-03-02T04:24:49.579Z,15.40
2023-03-02T04:27:18.692Z,13.17
2023-03-02T04:29:48.428Z,13.17
2023-03-02T04:32:18.597Z,16.37
2023-03-02T04:34:52.599Z,14.30
2023-03-02T04:37:21.121Z,14.80
2023-03-02T04:39:51.695Z,13.40
2023-03-02T04:42:20.144Z,15.00
2023-03-02T04:44:48.509Z,14.17
2023-03-02T04:47:18.821Z,18.67
2023-03-02T04:49:47.216Z,17.20
2023-03-02T04:52:15.601Z,16.70
2023-03-02T04:54:44.250Z,15.77
2023-03-02T04:57:12.664Z,20.93
2023-03-02T04:59:41.688Z,13.63
2023-03-02T05:02:10.233Z,17.43
2023-03-02T05:04:42.337Z,19.67
2023-03-02T05:07:10.986Z,20.67
2023-03-02T05:09:39.472Z,14.77
2023-03-02T05:12:08.503Z,16.70
2023-03-02T05:14:36.967Z,17.20
2023-03-02T05:17:05.315Z,25.30
2023-03-02T05:19:33.882Z,22.10
2023-03-02T05:22:03.724Z,15.13
2023-03-02T05:24:32.294Z,15.63
2023-03-02T05:27:00.595Z,17.57
2023-03-02T05:29:29.240Z,17.67
2023-03-02T05:31:57.924Z,15.57
2023-03-02T05:34:26.562Z,15.40
2023-03-02T05:36:55.022Z,14.53
2023-03-02T05:39:24.926Z,15.70
2023-03-02T05:41:53.300Z,13.33
2023-03-02T05:44:21.855Z,16.53
2023-03-02T05:46:50.231Z,22.03
2023-03-02T05:49:18.747Z,18.10
2023-03-02T05:51:47.229Z,14.83
2023-03-02T05:54:15.942Z,17.03
2023-03-02T05:56:45.801Z,14.00
2023-03-02T05:59:14.209Z,13.60
2023-03-02T06:01:42.759Z,14.17
2023-03-02T06:04:11.619Z,15.77
2023-03-02T06:06:40.265Z,16.57
2023-03-02T06:09:08.750Z,15.57
2023-03-02T06:11:37.349Z,15.13
2023-03-02T06:14:07.393Z,16.20
2023-03-02T06:16:37.299Z,17.33
2023-03-02T06:19:05.842Z,15.37
2023-03-02T06:21:34.643Z,16.50
2023-03-02T06:24:03.015Z,16.37
2023-03-02T06:26:31.821Z,19.57
2023-03-02T06:29:00.642Z,13.90
2023-03-02T06:31:31.268Z,16.43
2023-03-02T06:33:59.735Z,19.67
2023-03-02T06:36:28.861Z,17.30
2023-03-02T06:38:57.436Z,13.23
2023-03-02T06:41:26.402Z,13.13
2023-03-02T06:43:55.182Z,12.10
2023-03-02T06:46:23.842Z,10.93
2023-03-02T06:48:53.688Z,11.90
2023-03-02T06:51:22.242Z,9.30
2023-03-02T06:53:50.724Z,9.20
2023-03-02T06:56:19.298Z,9.70
2023-03-02T06:58:47.797Z,11.03
2023-03-02T07:01:16.823Z,10.47
2023-03-02T07:03:45.389Z,10.90
2023-03-02T07:06:15.783Z,10.97
2023-03-02T07:08:44.174Z,12.03
2023-03-02T07:11:14.001Z,9.83
2023-03-02T07:13:42.575Z,8.73
2023-03-02T07:16:12.918Z,9.30
2023-03-02T07:18:41.871Z,8.80
2023-03-02T07:21:10.445Z,8.63
2023-03-02T07:23:40.720Z,8.97
2023-03-02T07:26:09.172Z,8.17
2023-03-02T07:28:39.796Z,8.33
2023-03-02T07:31:09.013Z,8.80
2023-03-02T07:33:38.311Z,7.93
2023-03-02T07:36:07.912Z,8.77
2023-03-02T07:38:40.001Z,7.63
2023-03-02T07:41:09.342Z,8.20
2023-03-02T07:43:37.711Z,8.17
2023-03-02T07:46:06.834Z,7.80
2023-03-02T07:48:35.573Z,8.03
2023-03-02T07:51:06.187Z,7.73
2023-03-02T07:53:34.952Z,7.53
2023-03-02T07:56:09.482Z,7.57
2023-03-02T07:58:38.446Z,10.63
2023-03-02T08:01:07.295Z,13.60
2023-03-02T08:03:35.965Z,8.67
2023-03-02T08:06:07.113Z,7.93
2023-03-02T08:08:36.049Z,7.50
2023-03-02T08:11:10.617Z,8.07
2023-03-02T08:13:40.769Z,7.27
2023-03-02T08:16:10.846Z,8.23
2023-03-02T08:18:40.683Z,7.57
2023-03-02T08:21:14.586Z,8.43
2023-03-02T08:23:43.459Z,6.77
2023-03-02T08:26:15.837Z,7.83
2023-03-02T08:28:46.136Z,6.63
2023-03-02T08:31:14.966Z,10.37
2023-03-02T08:33:44.656Z,6.97
2023-03-02T08:36:15.285Z,6.77
2023-03-02T08:38:43.765Z,7.27
2023-03-02T08:41:15.427Z,6.47
2023-03-02T08:43:44.015Z,6.30
2023-03-02T08:46:14.065Z,7.10
2023-03-02T08:48:43.187Z,7.10
2023-03-02T08:51:14.620Z,6.73
2023-03-02T08:53:43.991Z,6.40
2023-03-02T08:56:19.318Z,6.27
2023-03-02T08:58:47.928Z,7.97
2023-03-02T09:01:17.983Z,6.87
2023-03-02T09:03:46.688Z,7.57
2023-03-02T09:06:15.734Z,7.00
2023-03-02T09:08:44.546Z,7.63
2023-03-02T09:11:12.885Z,15.40
2023-03-02T09:13:43.483Z,6.37
2023-03-02T09:16:12.433Z,6.47
2023-03-02T09:18:41.398Z,6.63
2023-03-02T09:21:10.720Z,6.83
2023-03-02T09:23:39.050Z,7.03
2023-03-02T09:26:07.693Z,7.37
2023-03-02T09:28:37.086Z,7.20
2023-03-02T09:31:09.633Z,6.93
2023-03-02T09:33:38.041Z,7.13
2023-03-02T09:36:11.577Z,6.30
2023-03-02T09:38:40.206Z,7.13
2023-03-02T09:41:29.133Z,7.23
2023-03-02T09:44:05.540Z,7.13
2023-03-02T09:46:37.704Z,7.37
2023-03-02T09:49:15.745Z,7.03
2023-03-02T09:51:48.353Z,7.90
2023-03-02T09:54:20.617Z,8.17
2023-03-02T09:56:51.268Z,7.93
2023-03-02T09:59:23.145Z,8.83
2023-03-02T10:01:58.067Z,7.23
2023-03-02T10:04:29.141Z,6.23
2023-03-02T10:07:00.389Z,6.40
2023-03-02T10:09:29.174Z,6.53
2023-03-02T10:12:15.912Z,6.37
2023-03-02T10:14:47.452Z,5.93
2023-03-02T10:17:31.246Z,9.10
2023-03-02T10:20:03.725Z,6.43
2023-03-02T10:22:36.334Z,6.60
2023-03-02T10:25:16.074Z,6.60
2023-03-02T10:27:47.170Z,7.50
2023-03-02T10:30:20.698Z,7.33
2023-03-02T10:32:52.358Z,6.93
2023-03-02T10:35:23.310Z,7.60
2023-03-02T10:37:53.094Z,8.33
2023-03-02T10:40:33.706Z,7.73
2023-03-02T10:43:02.769Z,7.67
2023-03-02T10:45:32.567Z,9.10
2023-03-02T10:48:03.569Z,8.70
2023-03-02T10:50:32.345Z,8.97
2023-03-02T10:53:03.555Z,8.63
2023-03-02T10:55:34.497Z,9.83
2023-03-02T10:58:05.664Z,9.67
2023-03-02T11:00:36.899Z,8.90
2023-03-02T11:03:21.100Z,10.23
2023-03-02T11:05:50.255Z,10.03
2023-03-02T11:08:20.250Z,9.97
2023-03-02T11:10:56.943Z,10.43
2023-03-02T11:13:31.042Z,18.57
2023-03-02T11:16:01.092Z,11.27
2023-03-02T11:18:34.564Z,11.47
2023-03-02T11:21:05.831Z,12.60
2023-03-02T11:23:42.579Z,18.80
2023-03-02T11:26:19.486Z,17.13
2023-03-02T11:28:51.000Z,12.93
2023-03-02T11:31:25.273Z,12.63
2023-03-02T11:34:16.797Z,13.73
2023-03-02T11:36:50.662Z,13.40
2023-03-02T11:39:23.024Z,13.57
2023-03-02T11:41:52.744Z,12.97
2023-03-02T11:44:24.283Z,13.20
2023-03-02T11:46:59.209Z,13.00
2023-03-02T11:49:37.226Z,12.40
2023-03-02T11:52:06.067Z,13.90
2023-03-02T11:54:39.675Z,16.07
2023-03-02T11:57:14.874Z,16.77
2023-03-02T11:59:43.654Z,13.93
2023-03-02T12:02:14.506Z,16.23
2023-03-02T12:04:44.903Z,15.37
2023-03-02T12:07:24.757Z,16.10
2023-03-02T12:10:02.385Z,15.27
2023-03-02T12:12:44.749Z,16.37
2023-03-02T12:15:30.152Z,16.60
2023-03-02T12:17:58.733Z,16.87
2023-03-02T12:20:30.071Z,18.67
2023-03-02T12:23:09.087Z,17.97
2023-03-02T12:25:41.881Z,15.57
2023-03-02T12:28:29.163Z,15.40
2023-03-02T12:31:03.524Z,15.20
2023-03-02T12:33:32.047Z,17.40
2023-03-02T12:36:16.177Z,15.93
2023-03-02T12:38:48.638Z,17.37
2023-03-02T12:41:25.496Z,16.80
2023-03-02T12:44:08.607Z,16.07
2023-03-02T12:46:40.279Z,14.30
2023-03-02T12:49:28.860Z,15.10
2023-03-02T12:52:01.206Z,15.23
2023-03-02T12:54:32.047Z,14.53
2023-03-02T12:57:09.081Z,14.70
2023-03-02T12:59:38.119Z,15.40
2023-03-02T13:02:19.057Z,15.40
2023-03-02T13:04:54.960Z,15.53
2023-03-02T13:07:27.825Z,16.57
2023-03-02T13:09:59.275Z,15.03
2023-03-02T13:12:29.337Z,14.90
2023-03-02T13:14:59.620Z,17.33
2023-03-02T13:17:31.068Z,15.23
2023-03-02T13:20:00.983Z,14.30
2023-03-02T13:22:31.126Z,14.40
2023-03-02T13:25:02.257Z,14.53
2023-03-02T13:27:31.558Z,14.53
2023-03-02T13:30:10.400Z,15.60
2023-03-02T13:32:41.435Z,14.43
2023-03-02T13:35:17.704Z,14.20
2023-03-02T13:37:47.402Z,12.80
2023-03-02T13:40:34.317Z,14.13
2023-03-02T13:43:02.902Z,14.77
2023-03-02T13:45:33.136Z,13.57
2023-03-02T13:48:02.509Z,13.83
2023-03-02T13:50:32.977Z,13.97
2023-03-02T13:53:07.176Z,13.50
2023-03-02T13:55:36.338Z,15.10
2023-03-02T13:58:04.938Z,13.93
2023-03-02T14:00:35.449Z,12.57
2023-03-02T14:03:04.040Z,12.83
2023-03-02T14:05:33.938Z,12.77
2023-03-02T14:08:04.192Z,11.13
2023-03-02T14:10:32.690Z,12.40
2023-03-02T14:13:05.510Z,12.07
2023-03-02T14:15:34.229Z,11.33
2023-03-02T14:18:03.233Z,11.67
2023-03-02T14:20:31.976Z,11.60
2023-03-02T14:23:03.562Z,11.10
2023-03-02T14:25:33.641Z,11.50
2023-03-02T14:28:02.087Z,11.80
2023-03-02T14:30:30.548Z,12.47
2023-03-02T14:32:59.140Z,11.70
2023-03-02T14:35:27.689Z,11.57
2023-03-02T14:37:56.218Z,11.33
2023-03-02T14:40:27.287Z,11.90
2023-03-02T14:42:57.188Z,14.03
2023-03-02T14:45:26.082Z,13.23
2023-03-02T14:47:54.577Z,11.77
2023-03-02T14:50:23.752Z,12.40
2023-03-02T14:52:55.182Z,12.40
2023-03-02T14:55:27.533Z,11.63
2023-03-02T14:57:59.311Z,12.30
2023-03-02T15:00:28.456Z,12.67
2023-03-02T15:02:57.178Z,13.40
2023-03-02T15:05:25.802Z,13.33
2023-03-02T15:07:58.750Z,12.93
2023-03-02T15:10:27.375Z,14.07
2023-03-02T15:12:57.201Z,12.93
2023-03-02T15:15:26.598Z,13.57
2023-03-02T15:17:55.081Z,13.17
2023-03-02T15:20:23.735Z,12.20
2023-03-02T15:22:53.244Z,13.20
2023-03-02T15:25:24.086Z,12.70
2023-03-02T15:27:52.760Z,11.03
2023-03-02T15:30:24.293Z,11.67
2023-03-02T15:32:54.924Z,12.13
2023-03-02T15:35:24.555Z,12.90
2023-03-02T15:37:53.729Z,13.17
2023-03-02T15:40:22.325Z,12.13
2023-03-02T15:42:51.212Z,13.47
2023-03-02T15:45:19.806Z,13.63
2023-03-02T15:47:49.836Z,13.83
2023-03-02T15:50:18.855Z,15.00
2023-03-02T15:52:47.122Z,13.63
2023-03-02T15:55:15.673Z,12.53
2023-03-02T15:57:44.383Z,11.57
2023-03-02T16:00:14.301Z,12.33
2023-03-02T16:02:42.637Z,10.37
2023-03-02T16:05:12.599Z,11.37
2023-03-02T16:07:41.147Z,11.77
2023-03-02T16:10:15.323Z,11.63
2023-03-02T16:12:43.780Z,11.33
2023-03-02T16:15:12.716Z,11.17
2023-03-02T16:17:41.119Z,11.77
2023-03-02T16:20:10.943Z,11.13
2023-03-02T16:22:41.074Z,11.37
2023-03-02T16:25:10.261Z,11.50
2023-03-02T16:27:38.968Z,11.30
2023-03-02T16:30:08.643Z,10.87
2023-03-02T16:32:37.192Z,12.23
2023-03-02T16:35:06.155Z,11.50
2023-03-02T16:37:35.246Z,12.90
2023-03-02T16:40:06.080Z,12.63
2023-03-02T16:42:34.488Z,12.07
2023-03-02T16:45:02.756Z,11.30
2023-03-02T16:47:31.861Z,16.00
2023-03-02T16:50:00.620Z,13.47
2023-03-02T16:52:28.997Z,11.60
2023-03-02T16:54:57.676Z,12.33
2023-03-02T16:57:27.458Z,12.40
2023-03-02T16:59:55.994Z,11.07
2023-03-02T17:02:24.443Z,12.17
2023-03-02T17:04:52.836Z,12.23
2023-03-02T17:07:21.264Z,14.37
2023-03-02T17:09:49.713Z,14.20
2023-03-02T17:12:18.271Z,14.17
2023-03-02T17:14:48.231Z,13.83
2023-03-02T17:17:16.833Z,14.93
2023-03-02T17:19:45.260Z,14.53
2023-03-02T17:22:14.356Z,12.67
2023-03-02T17:24:42.866Z,11.80
2023-03-02T17:27:24.235Z,12.47
2023-03-02T17:29:55.803Z,12.17
2023-03-02T17:32:25.023Z,12.10
2023-03-02T17:34:53.685Z,12.67
2023-03-02T17:37:22.231Z,13.43
2023-03-02T17:39:51.219Z,12.20
2023-03-02T17:42:20.226Z,11.03
2023-03-02T17:44:48.797Z,10.20
2023-03-02T17:47:18.776Z,9.97
2023-03-02T17:49:47.200Z,10.70
2023-03-02T17:52:16.026Z,11.03
2023-03-02T17:54:44.825Z,10.67
2023-03-02T17:57:13.980Z,10.70
2023-03-02T17:59:42.665Z,9.47
2023-03-02T18:02:11.604Z,9.03
2023-03-02T18:04:41.673Z,8.80
2023-03-02T18:07:10.189Z,9.23
2023-03-02T18:09:39.063Z,11.03
2023-03-02T18:12:08.959Z,10.23
2023-03-02T18:14:38.709Z,9.80
2023-03-02T18:17:09.432Z,9.70
2023-03-02T18:19:38.389Z,9.67
2023-03-02T18:22:08.267Z,10.03
2023-03-02T18:24:36.719Z,8.67
2023-03-02T18:27:05.689Z,9.63
2023-03-02T18:29:34.391Z,9.10
2023-03-02T18:32:02.770Z,8.80
2023-03-02T18:34:31.184Z,9.97
2023-03-02T18:36:59.589Z,10.37
2023-03-02T18:39:29.314Z,9.30
2023-03-02T18:41:57.721Z,11.53
2023-03-02T18:44:28.147Z,11.77
2023-03-02T18:46:56.787Z,10.47
2023-03-02T18:49:25.362Z,11.03
2023-03-02T18:51:55.239Z,9.80
2023-03-02T18:54:24.685Z,10.27
2023-03-02T18:56:54.569Z,11.63
2023-03-02T18:59:22.879Z,11.53
2023-03-02T19:01:51.449Z,10.97
2023-03-02T19:04:26.462Z,11.93
2023-03-02T19:06:56.145Z,12.63
2023-03-02T19:09:24.839Z,11.87
2023-03-02T19:11:54.897Z,13.07
2023-03-02T19:14:23.421Z,12.63
2023-03-02T19:16:51.973Z,12.80
2023-03-02T19:19:20.728Z,13.83
2023-03-02T19:21:49.286Z,13.10
2023-03-02T19:24:17.859Z,14.30
2023-03-02T19:26:46.561Z,13.80
2023-03-02T19:29:16.268Z,13.57
2023-03-02T19:31:44.760Z,12.87
2023-03-02T19:34:13.301Z,12.03
2023-03-02T19:36:41.842Z,11.47
2023-03-02T19:39:12.017Z,11.20
2023-03-02T19:41:40.810Z,11.10
2023-03-02T19:44:09.298Z,10.20
2023-03-02T19:46:39.069Z,12.00
2023-03-02T19:49:07.587Z,10.43
2023-03-02T19:51:36.009Z,11.97
2023-03-02T19:54:04.867Z,11.30
2023-03-02T19:56:35.276Z,10.33
2023-03-02T19:59:04.306Z,11.60
2023-03-02T20:01:32.848Z,11.97
2023-03-02T20:04:02.692Z,11.30
2023-03-02T20:06:33.415Z,11.57
2023-03-02T20:09:03.916Z,11.70
2023-03-02T20:11:32.893Z,11.60
2023-03-02T20:14:02.951Z,11.97
2023-03-02T20:16:32.026Z,16.63
2023-03-02T20:19:02.500Z,15.00
2023-03-02T20:21:31.353Z,16.87
2023-03-02T20:24:00.185Z,17.40
2023-03-02T20:26:29.122Z,13.83
2023-03-02T20:28:58.475Z,13.83
2023-03-02T20:31:27.164Z,11.73
2023-03-02T20:33:57.017Z,10.13
2023-03-02T20:36:32.722Z,10.50
2023-03-02T20:39:04.800Z,9.93
2023-03-02T20:41:33.455Z,9.53
2023-03-02T20:44:02.239Z,8.40
2023-03-02T20:46:33.609Z,9.47
2023-03-02T20:49:02.993Z,9.67
2023-03-02T20:51:33.559Z,9.33
2023-03-02T20:54:02.910Z,9.07
2023-03-02T20:56:31.509Z,10.20
2023-03-02T20:58:59.973Z,10.40
2023-03-02T21:01:29.846Z,10.47
2023-03-02T21:03:58.619Z,8.33
2023-03-02T21:06:30.067Z,10.10
2023-03-02T21:09:00.341Z,9.60
2023-03-02T21:11:29.359Z,9.53
2023-03-02T21:13:59.555Z,9.13
2023-03-02T21:16:29.903Z,8.30
2023-03-02T21:18:58.238Z,8.83
2023-03-02T21:21:40.447Z,7.47
2023-03-02T21:24:11.385Z,8.43
2023-03-02T21:26:41.534Z,7.37
2023-03-02T21:29:11.897Z,8.40
2023-03-02T21:31:40.786Z,7.80
2023-03-02T21:34:09.248Z,6.97
2023-03-02T21:36:37.955Z,7.27
2023-03-02T21:39:07.764Z,7.47
2023-03-02T21:41:37.773Z,7.17
2023-03-02T21:44:07.558Z,7.30
2023-03-02T21:46:37.370Z,8.00
2023-03-02T21:49:05.925Z,7.13
2023-03-02T21:51:34.839Z,7.20
2023-03-02T21:54:03.530Z,7.23
2023-03-02T21:56:32.016Z,7.23
2023-03-02T21:59:01.751Z,8.70
2023-03-02T22:01:32.872Z,8.80
2023-03-02T22:04:01.953Z,7.67
2023-03-02T22:06:32.699Z,6.33
2023-03-02T22:09:01.829Z,6.60
2023-03-02T22:11:32.450Z,5.93
2023-03-02T22:14:05.254Z,6.30
2023-03-02T22:16:37.020Z,5.10
2023-03-02T22:19:19.488Z,6.30
2023-03-02T22:21:49.294Z,6.37
2023-03-02T22:24:22.636Z,6.47
2023-03-02T22:26:58.456Z,6.90
2023-03-02T22:29:29.735Z,5.90
2023-03-02T22:32:00.295Z,6.17
2023-03-02T22:34:31.106Z,6.50
2023-03-02T22:37:02.527Z,6.80
2023-03-02T22:39:32.929Z,6.67
2023-03-02T22:42:08.597Z,6.70
2023-03-02T22:44:38.430Z,7.50
2023-03-02T22:47:10.142Z,7.10
2023-03-02T22:49:38.724Z,6.83
2023-03-02T22:52:13.658Z,6.20
2023-03-02T22:54:42.509Z,7.13
2023-03-02T22:57:31.053Z,7.40
2023-03-02T23:00:32.222Z,8.53
2023-03-02T23:03:00.542Z,11.47
2023-03-02T23:05:30.977Z,9.43
2023-03-02T23:08:07.756Z,10.70
2023-03-02T23:10:36.136Z,10.43
2023-03-02T23:13:04.931Z,10.97
2023-03-02T23:15:36.821Z,10.07
2023-03-02T23:18:13.639Z,9.83
2023-03-02T23:20:42.267Z,9.93
2023-03-02T23:23:10.825Z,10.07
2023-03-02T23:25:39.211Z,10.27
2023-03-02T23:28:07.863Z,12.47
2023-03-02T23:30:38.098Z,11.23
2023-03-02T23:33:06.603Z,11.80
2023-03-02T23:35:35.216Z,10.77
2023-03-02T23:38:03.633Z,11.03
2023-03-02T23:40:32.067Z,11.70
2023-03-02T23:43:00.501Z,10.60
2023-03-02T23:45:29.087Z,11.50
2023-03-02T23:47:59.693Z,10.53
2023-03-02T23:50:28.358Z,12.33
2023-03-02T23:52:56.985Z,12.20
2023-03-02T23:55:25.360Z,11.27
2023-03-02T23:57:54.255Z,12.20
